sensor_id;sensor_type;location;lat;lon;timestamp;pressure;altitude;pressure_sealevel;temperature;humidity
64503;BME280;50971;51.940;21.258;2023-11-19T00:06:34;101242.42;;;0.72;100.00
64503;BME280;50971;51.940;21.258;2023-11-19T00:16:36;101245.16;;;0.71;100.00
64503;BME280;50971;51.940;21.258;2023-11-19T00:26:38;101244.60;;;0.61;100.00
64503;BME280;50971;51.940;21.258;2023-11-19T00:36:40;101241.35;;;0.57;100.00
64503;BME280;50971;51.940;21.258;2023-11-19T00:46:42;101234.80;;;0.77;100.00
64503;BME280;50971;51.940;21.258;2023-11-19T00:56:44;101216.13;;;1.00;100.00
64503;BME280;50971;51.940;21.258;2023-11-19T01:06:46;101206.65;;;1.16;100.00
64503;BME280;50971;51.940;21.258;2023-11-19T01:16:50;101197.29;;;1.06;100.00
64503;BME280;50971;51.940;21.258;2023-11-19T01:26:52;101174.88;;;0.90;100.00
64503;BME280;50971;51.940;21.258;2023-11-19T01:36:55;101153.41;;;0.78;100.00
64503;BME280;50971;51.940;21.258;2023-11-19T01:46:57;101151.17;;;0.87;100.00
64503;BME280;50971;51.940;21.258;2023-11-19T01:56:58;101149.83;;;1.04;100.00
64503;BME280;50971;51.940;21.258;2023-11-19T02:07:00;101135.10;;;1.21;100.00
64503;BME280;50971;51.940;21.258;2023-11-19T02:17:02;101122.98;;;1.33;100.00
64503;BME280;50971;51.940;21.258;2023-11-19T02:27:22;101109.78;;;1.22;100.00
64503;BME280;50971;51.940;21.258;2023-11-19T02:37:30;101082.37;;;1.02;100.00
64503;BME280;50971;51.940;21.258;2023-11-19T02:47:32;101075.20;;;0.86;100.00
64503;BME280;50971;51.940;21.258;2023-11-19T02:57:33;101073.13;;;0.94;100.00
64503;BME280;50971;51.940;21.258;2023-11-19T03:07:36;101059.73;;;1.13;100.00
64503;BME280;50971;51.940;21.258;2023-11-19T03:17:39;101042.58;;;1.28;100.00
64503;BME280;50971;51.940;21.258;2023-11-19T03:27:41;101031.70;;;1.20;100.00
64503;BME280;50971;51.940;21.258;2023-11-19T03:37:43;101022.48;;;1.00;100.00
64503;BME280;50971;51.940;21.258;2023-11-19T03:47:46;101009.58;;;0.85;100.00
64503;BME280;50971;51.940;21.258;2023-11-19T03:57:48;100989.48;;;0.98;100.00
64503;BME280;50971;51.940;21.258;2023-11-19T04:07:51;100974.17;;;1.13;100.00
64503;BME280;50971;51.940;21.258;2023-11-19T04:17:52;100965.20;;;1.01;100.00
64503;BME280;50971;51.940;21.258;2023-11-19T04:27:55;100950.31;;;0.84;100.00
64503;BME280;50971;51.940;21.258;2023-11-19T04:37:57;100927.56;;;0.69;100.00
64503;BME280;50971;51.940;21.258;2023-11-19T04:47:59;100910.05;;;0.74;100.00
64503;BME280;50971;51.940;21.258;2023-11-19T04:58:01;100891.85;;;0.77;100.00
64503;BME280;50971;51.940;21.258;2023-11-19T05:08:02;100875.81;;;0.97;100.00
64503;BME280;50971;51.940;21.258;2023-11-19T05:18:04;100868.64;;;0.91;100.00
64503;BME280;50971;51.940;21.258;2023-11-19T05:28:06;100855.92;;;0.68;100.00
64503;BME280;50971;51.940;21.258;2023-11-19T05:38:08;100850.46;;;0.73;100.00
64503;BME280;50971;51.940;21.258;2023-11-19T05:48:11;100845.84;;;0.79;100.00
64503;BME280;50971;51.940;21.258;2023-11-19T05:58:12;100852.42;;;0.93;100.00
64503;BME280;50971;51.940;21.258;2023-11-19T06:08:14;100844.94;;;1.01;100.00
64503;BME280;50971;51.940;21.258;2023-11-19T06:18:16;100841.98;;;0.84;100.00
64503;BME280;50971;51.940;21.258;2023-11-19T06:28:22;100834.08;;;0.80;100.00
64503;BME280;50971;51.940;21.258;2023-11-19T06:38:23;100829.36;;;0.97;100.00
64503;BME280;50971;51.940;21.258;2023-11-19T06:48:25;100823.25;;;1.13;100.00
64503;BME280;50971;51.940;21.258;2023-11-19T06:58:27;100799.72;;;1.25;100.00
64503;BME280;50971;51.940;21.258;2023-11-19T07:08:28;100785.23;;;1.19;100.00
64503;BME280;50971;51.940;21.258;2023-11-19T07:18:30;100771.80;;;1.04;100.00
64503;BME280;50971;51.940;21.258;2023-11-19T07:28:33;100760.57;;;1.16;100.00
64503;BME280;50971;51.940;21.258;2023-11-19T07:38:35;100748.75;;;1.38;100.00
64503;BME280;50971;51.940;21.258;2023-11-19T07:48:36;100738.55;;;1.43;100.00
64503;BME280;50971;51.940;21.258;2023-11-19T07:58:38;100728.40;;;1.51;100.00
64503;BME280;50971;51.940;21.258;2023-11-19T08:08:40;100720.20;;;1.86;100.00
64503;BME280;50971;51.940;21.258;2023-11-19T08:18:43;100710.73;;;1.90;100.00
64503;BME280;50971;51.940;21.258;2023-11-19T08:28:44;100697.02;;;2.01;100.00
64503;BME280;50971;51.940;21.258;2023-11-19T08:38:46;100679.81;;;2.05;100.00
64503;BME280;50971;51.940;21.258;2023-11-19T08:48:50;100660.35;;;2.00;100.00
64503;BME280;50971;51.940;21.258;2023-11-19T08:58:51;100647.35;;;2.29;100.00
64503;BME280;50971;51.940;21.258;2023-11-19T09:08:53;100638.70;;;2.38;100.00
64503;BME280;50971;51.940;21.258;2023-11-19T09:18:55;100631.87;;;2.55;100.00
64503;BME280;50971;51.940;21.258;2023-11-19T09:28:57;100611.95;;;2.66;100.00
64503;BME280;50971;51.940;21.258;2023-11-19T09:38:59;100595.43;;;2.71;100.00
64503;BME280;50971;51.940;21.258;2023-11-19T09:49:04;100578.27;;;2.52;100.00
64503;BME280;50971;51.940;21.258;2023-11-19T09:59:08;100551.92;;;2.36;100.00
64503;BME280;50971;51.940;21.258;2023-11-19T10:09:12;100535.16;;;2.16;100.00
64503;BME280;50971;51.940;21.258;2023-11-19T10:19:19;100515.33;;;2.19;100.00
64503;BME280;50971;51.940;21.258;2023-11-19T10:29:24;100505.70;;;2.18;100.00
64503;BME280;50971;51.940;21.258;2023-11-19T10:39:52;100490.77;;;2.06;100.00
64503;BME280;50971;51.940;21.258;2023-11-19T10:49:57;100474.06;;;2.01;100.00
64503;BME280;50971;51.940;21.258;2023-11-19T11:00:01;100457.83;;;1.86;100.00
64503;BME280;50971;51.940;21.258;2023-11-19T11:10:05;100439.48;;;1.81;100.00
64503;BME280;50971;51.940;21.258;2023-11-19T11:20:10;100421.84;;;1.84;100.00
64503;BME280;50971;51.940;21.258;2023-11-19T12:12:26;100314.67;;;2.08;100.00
64503;BME280;50971;51.940;21.258;2023-11-19T12:22:29;100296.52;;;1.80;100.00
64503;BME280;50971;51.940;21.258;2023-11-19T12:32:41;100276.92;;;1.72;100.00
64503;BME280;50971;51.940;21.258;2023-11-19T12:42:49;100258.06;;;1.56;100.00
64503;BME280;50971;51.940;21.258;2023-11-19T12:52:58;100246.84;;;1.48;100.00
64503;BME280;50971;51.940;21.258;2023-11-19T13:03:00;100235.70;;;1.53;100.00
64503;BME280;50971;51.940;21.258;2023-11-19T14:35:49;100113.00;;;0.63;100.00
64503;BME280;50971;51.940;21.258;2023-11-19T14:45:51;100094.22;;;0.41;100.00
64503;BME280;50971;51.940;21.258;2023-11-19T16:39:52;100036.63;;;0.13;100.00
64503;BME280;50971;51.940;21.258;2023-11-19T16:49:54;100027.33;;;0.14;100.00
64503;BME280;50971;51.940;21.258;2023-11-19T16:59:57;100019.54;;;0.09;100.00
64503;BME280;50971;51.940;21.258;2023-11-19T19:36:38;99852.94;;;-0.26;100.00
64503;BME280;50971;51.940;21.258;2023-11-19T19:46:39;99849.85;;;-0.18;100.00
64503;BME280;50971;51.940;21.258;2023-11-19T19:56:41;99846.77;;;-0.09;100.00
64503;BME280;50971;51.940;21.258;2023-11-19T20:27:47;99822.60;;;-0.01;100.00
64503;BME280;50971;51.940;21.258;2023-11-19T20:38:07;99816.48;;;0.07;100.00
64503;BME280;50971;51.940;21.258;2023-11-19T20:48:09;99805.88;;;0.02;100.00
64503;BME280;50971;51.940;21.258;2023-11-19T21:19:18;99776.60;;;0.07;100.00
64503;BME280;50971;51.940;21.258;2023-11-19T21:29:20;99764.09;;;0.05;100.00
64503;BME280;50971;51.940;21.258;2023-11-19T22:11:14;99735.14;;;0.36;100.00
64503;BME280;50971;51.940;21.258;2023-11-19T22:21:16;99713.70;;;0.45;100.00
64503;BME280;50971;51.940;21.258;2023-11-19T23:54:54;99659.46;;;0.73;100.00
